Detall de PIREP

Printer-friendly versionPDF version

[2014/11/03 16:38:00]
Flight IATA:CT2111
Pilot Number:037
Company ICAO:CAT
Aircraft Type:B752/E
PAX:95
Aircraft Registration:PAX
Departing Airport: LEST
Destination Airport: LEVC
Alternate Airport:LEPA
Online: VATSIM
Route:FORNO A33 ZMR A43 NVS DCT PDT M871 ABOSI
Flight Level:F240
No Slew and time accel
No pause
Crash detect
Detect pilot in Cockpit between each 30 and 45 minutes
16:38 Zero fuel Weight: 152720 Lbs, Fuel Weight: 16300 Lbs
16:38 VATSIM:LEST 031600Z 33010KT 290V360 6000 -RA SCT007 BKN012 OVC030 11/10 Q1001 NOSIG
16:38 VATSIM:LEVC 031600Z 15009KT 9999 FEW025 23/13 Q1008 NOSIG
16:39 Parking Brakes off
16:51 Take-off
16:51 Take off Weight: 167845 Lbs
16:51 Wind: 336º @ 009 Knots Heading: 346º
16:51 POS N42º 53´ 44´´ W008º 24´ 54´´
16:51 Flaps:2 at 176 Knots
16:51 Gear Up: 181 Knots
16:51 Flaps:1 at 192 Knots
16:52 Flaps:0 at 202 Knots
17:03 TOC
17:03 Fuel Weight: 12389 Lb
17:06 Wind:305º@027 Knots Heading: 124º Ground Speed: 502 Knots Altitude 23694 ft
17:06 TOD
17:06 Fuel Weight: 11759 Lb
17:06 TOC
17:06 Fuel Weight: 11749 Lb
17:21 Wind:216º@082 Knots Heading: 136º Ground Speed: 439 Knots Altitude 23881 ft
17:21 TOD
17:21 Fuel Weight: 9613 Lb
17:21 TOC
17:21 Fuel Weight: 9600 Lb
17:32 TOD
17:32 Fuel Weight: 8023 Lb
17:32 TOC
17:32 Fuel Weight: 8010 Lb
17:33 TOD
17:33 Fuel Weight: 7928 Lb
17:33 TOC
17:33 Fuel Weight: 7909 Lb
17:35 TOD
17:35 Fuel Weight: 7655 Lb
17:35 TOC
17:35 Fuel Weight: 7627 Lb
17:36 Wind:198º@049 Knots Heading: 110º Ground Speed: 442 Knots Altitude 23799 ft
17:36 TOD
17:36 Fuel Weight: 7480 Lb
17:36 TOC
17:36 Fuel Weight: 7432 Lb
17:37 TOD
17:37 Fuel Weight: 7344 Lb
17:37 TOC
17:37 Fuel Weight: 7324 Lb
17:37 TOD
17:37 Fuel Weight: 7291 Lb
17:38 TOC
17:38 Fuel Weight: 7243 Lb
17:38 TOD
17:38 Fuel Weight: 7177 Lb
17:38 TOC
17:38 Fuel Weight: 7154 Lb
17:45 TOD
17:45 Fuel Weight: 6356 Lb
17:51 Wind:205º@021 Knots Heading: 107º Ground Speed: 285 Knots Altitude 12637 ft
17:57 Flaps:1 at 200 Knots
17:58 Flaps:2 at 182 Knots
18:00 Flaps:3 at 177 Knots
18:01 Gear Down: 172 Knots
18:02 Flaps:4 at 160 Knots
18:04 Flaps:5 at 141 Knots
18:06 Wind:201º@005 Knots Heading: 118º Ground Speed: 135 Knots Altitude 301 ft
18:06 TouchDown:Rate -249 ft/min Speed: 127 Knots
18:06 VATSIM:LEVC 031730Z 18005KT 150V210 9999 FEW025 21/11 Q1008 NOSIG
18:06 Land
18:06 Wind:201º@005 Knots
18:06 Heading: 115º
18:06 Flight Duration: 01:15
18:06 Landing Weight: 157455 Lbs
18:06 POS N39º 29´ 23´´ W000º 28´ 59´´
18:08 Parking brakes on
18:08 Block to Block Duration: 01:29
18:08 Final Fuel: 4481 Lbls
18:08 Spent Fuel: 11818 Lbls
18:08 Flight Length: 451 NM
18:08 TOD Land Length: 83 NM

Exportar CSV

Powered by Drupal - Modified by Danger4k